sensor_id;sensor_type;location;lat;lon;timestamp;temperature;humidity
17988;DHT22;9119;50.932;5.342;2023-08-24T00:01:15;21.20;99.90
17988;DHT22;9119;50.932;5.342;2023-08-24T00:03:43;21.20;99.90
17988;DHT22;9119;50.932;5.342;2023-08-24T00:06:09;21.20;99.90
17988;DHT22;9119;50.932;5.342;2023-08-24T00:08:36;21.30;99.90
17988;DHT22;9119;50.932;5.342;2023-08-24T00:11:02;21.30;99.90
17988;DHT22;9119;50.932;5.342;2023-08-24T00:13:28;21.30;99.90
17988;DHT22;9119;50.932;5.342;2023-08-24T00:15:54;21.30;99.90
17988;DHT22;9119;50.932;5.342;2023-08-24T00:18:20;21.30;99.90
17988;DHT22;9119;50.932;5.342;2023-08-24T00:20:48;21.30;99.90
17988;DHT22;9119;50.932;5.342;2023-08-24T00:23:13;21.20;99.90
17988;DHT22;9119;50.932;5.342;2023-08-24T00:25:39;21.20;99.90
17988;DHT22;9119;50.932;5.342;2023-08-24T00:28:06;21.20;99.90
17988;DHT22;9119;50.932;5.342;2023-08-24T00:30:32;21.20;99.90
17988;DHT22;9119;50.932;5.342;2023-08-24T00:32:58;21.10;99.90
17988;DHT22;9119;50.932;5.342;2023-08-24T00:35:24;21.00;99.90
17988;DHT22;9119;50.932;5.342;2023-08-24T00:37:50;20.90;99.90
17988;DHT22;9119;50.932;5.342;2023-08-24T00:40:19;20.80;99.90
17988;DHT22;9119;50.932;5.342;2023-08-24T00:42:45;20.80;99.90
17988;DHT22;9119;50.932;5.342;2023-08-24T00:45:14;20.80;99.90
17988;DHT22;9119;50.932;5.342;2023-08-24T00:47:42;20.80;99.90
17988;DHT22;9119;50.932;5.342;2023-08-24T00:50:09;20.80;99.90
17988;DHT22;9119;50.932;5.342;2023-08-24T00:52:37;20.80;99.90
17988;DHT22;9119;50.932;5.342;2023-08-24T00:55:05;20.80;99.90
17988;DHT22;9119;50.932;5.342;2023-08-24T00:57:31;20.90;99.90
17988;DHT22;9119;50.932;5.342;2023-08-24T00:59:59;20.80;99.90
17988;DHT22;9119;50.932;5.342;2023-08-24T01:02:25;20.70;99.90
17988;DHT22;9119;50.932;5.342;2023-08-24T01:04:51;20.70;99.90
17988;DHT22;9119;50.932;5.342;2023-08-24T01:07:17;20.70;99.90
17988;DHT22;9119;50.932;5.342;2023-08-24T01:09:44;20.70;99.90
17988;DHT22;9119;50.932;5.342;2023-08-24T01:14:56;20.60;99.90
17988;DHT22;9119;50.932;5.342;2023-08-24T01:17:26;20.60;99.90
17988;DHT22;9119;50.932;5.342;2023-08-24T01:19:54;20.50;99.90
17988;DHT22;9119;50.932;5.342;2023-08-24T01:25:16;20.50;99.90
17988;DHT22;9119;50.932;5.342;2023-08-24T01:27:42;20.50;99.90
17988;DHT22;9119;50.932;5.342;2023-08-24T01:30:10;20.50;99.90
17988;DHT22;9119;50.932;5.342;2023-08-24T01:32:36;20.50;99.90
17988;DHT22;9119;50.932;5.342;2023-08-24T01:35:04;20.50;99.90
17988;DHT22;9119;50.932;5.342;2023-08-24T01:37:31;20.50;99.90
17988;DHT22;9119;50.932;5.342;2023-08-24T01:40:10;20.50;99.90
17988;DHT22;9119;50.932;5.342;2023-08-24T01:43:08;20.50;99.90
17988;DHT22;9119;50.932;5.342;2023-08-24T01:45:33;20.60;99.90
17988;DHT22;9119;50.932;5.342;2023-08-24T01:48:02;20.60;99.90
17988;DHT22;9119;50.932;5.342;2023-08-24T01:50:29;20.60;99.90
17988;DHT22;9119;50.932;5.342;2023-08-24T01:52:55;20.60;99.90
17988;DHT22;9119;50.932;5.342;2023-08-24T01:55:21;20.60;99.90
17988;DHT22;9119;50.932;5.342;2023-08-24T01:57:48;20.60;99.90
17988;DHT22;9119;50.932;5.342;2023-08-24T02:00:14;20.60;99.90
17988;DHT22;9119;50.932;5.342;2023-08-24T02:02:42;20.60;99.90
17988;DHT22;9119;50.932;5.342;2023-08-24T02:05:08;20.60;99.90
17988;DHT22;9119;50.932;5.342;2023-08-24T02:07:33;20.70;99.90
17988;DHT22;9119;50.932;5.342;2023-08-24T02:09:59;20.70;99.90
17988;DHT22;9119;50.932;5.342;2023-08-24T02:12:25;20.70;99.90
17988;DHT22;9119;50.932;5.342;2023-08-24T02:14:50;20.70;99.90
17988;DHT22;9119;50.932;5.342;2023-08-24T02:17:16;20.70;99.90
17988;DHT22;9119;50.932;5.342;2023-08-24T02:19:42;20.70;99.90
17988;DHT22;9119;50.932;5.342;2023-08-24T02:22:08;20.60;99.90
17988;DHT22;9119;50.932;5.342;2023-08-24T02:24:34;20.70;99.90
17988;DHT22;9119;50.932;5.342;2023-08-24T02:27:00;20.60;99.90
17988;DHT22;9119;50.932;5.342;2023-08-24T02:29:26;20.70;99.90
17988;DHT22;9119;50.932;5.342;2023-08-24T02:31:51;20.70;99.90
17988;DHT22;9119;50.932;5.342;2023-08-24T02:34:17;20.80;99.90
17988;DHT22;9119;50.932;5.342;2023-08-24T02:36:44;20.90;99.90
17988;DHT22;9119;50.932;5.342;2023-08-24T02:39:09;21.00;99.90
17988;DHT22;9119;50.932;5.342;2023-08-24T02:41:35;20.90;99.90
17988;DHT22;9119;50.932;5.342;2023-08-24T02:44:02;21.00;99.90
17988;DHT22;9119;50.932;5.342;2023-08-24T02:46:27;21.00;99.90
17988;DHT22;9119;50.932;5.342;2023-08-24T02:48:53;21.00;99.90
17988;DHT22;9119;50.932;5.342;2023-08-24T02:51:21;20.90;99.90
17988;DHT22;9119;50.932;5.342;2023-08-24T02:53:51;20.80;99.90
17988;DHT22;9119;50.932;5.342;2023-08-24T02:56:17;20.70;99.90
17988;DHT22;9119;50.932;5.342;2023-08-24T02:58:43;20.70;99.90
17988;DHT22;9119;50.932;5.342;2023-08-24T03:01:08;20.60;99.90
17988;DHT22;9119;50.932;5.342;2023-08-24T03:03:35;20.60;99.90
17988;DHT22;9119;50.932;5.342;2023-08-24T03:06:03;20.60;99.90
17988;DHT22;9119;50.932;5.342;2023-08-24T03:08:31;20.40;99.90
17988;DHT22;9119;50.932;5.342;2023-08-24T03:10:58;20.10;99.90
17988;DHT22;9119;50.932;5.342;2023-08-24T03:13:24;19.90;99.90
17988;DHT22;9119;50.932;5.342;2023-08-24T03:15:50;19.70;99.90
17988;DHT22;9119;50.932;5.342;2023-08-24T03:18:16;19.50;99.90
17988;DHT22;9119;50.932;5.342;2023-08-24T03:20:43;19.40;99.90
17988;DHT22;9119;50.932;5.342;2023-08-24T03:23:09;19.40;99.90
17988;DHT22;9119;50.932;5.342;2023-08-24T03:25:39;19.40;99.90
17988;DHT22;9119;50.932;5.342;2023-08-24T03:28:06;19.40;99.90
17988;DHT22;9119;50.932;5.342;2023-08-24T03:30:34;19.40;99.90
17988;DHT22;9119;50.932;5.342;2023-08-24T03:33:00;19.30;99.90
17988;DHT22;9119;50.932;5.342;2023-08-24T03:35:26;19.20;99.90
17988;DHT22;9119;50.932;5.342;2023-08-24T03:37:52;19.30;99.90
17988;DHT22;9119;50.932;5.342;2023-08-24T03:40:17;19.40;99.90
17988;DHT22;9119;50.932;5.342;2023-08-24T03:42:43;19.50;99.90
17988;DHT22;9119;50.932;5.342;2023-08-24T03:45:09;19.50;99.90
17988;DHT22;9119;50.932;5.342;2023-08-24T03:47:35;19.50;99.90
17988;DHT22;9119;50.932;5.342;2023-08-24T03:50:00;19.60;99.90
17988;DHT22;9119;50.932;5.342;2023-08-24T03:52:26;19.60;99.90
17988;DHT22;9119;50.932;5.342;2023-08-24T03:54:52;19.70;99.90
17988;DHT22;9119;50.932;5.342;2023-08-24T03:57:18;19.70;99.90
17988;DHT22;9119;50.932;5.342;2023-08-24T03:59:43;19.60;99.90
17988;DHT22;9119;50.932;5.342;2023-08-24T04:02:09;19.80;99.90
17988;DHT22;9119;50.932;5.342;2023-08-24T04:04:34;19.70;99.90
17988;DHT22;9119;50.932;5.342;2023-08-24T04:07:01;19.70;99.90
17988;DHT22;9119;50.932;5.342;2023-08-24T04:09:28;19.70;99.90
17988;DHT22;9119;50.932;5.342;2023-08-24T04:11:54;19.70;99.90
17988;DHT22;9119;50.932;5.342;2023-08-24T04:14:20;19.70;99.90
17988;DHT22;9119;50.932;5.342;2023-08-24T04:16:48;19.60;99.90
17988;DHT22;9119;50.932;5.342;2023-08-24T04:19:14;19.60;99.90
17988;DHT22;9119;50.932;5.342;2023-08-24T04:21:39;19.60;99.90
17988;DHT22;9119;50.932;5.342;2023-08-24T04:24:05;19.50;99.90
17988;DHT22;9119;50.932;5.342;2023-08-24T04:26:31;19.60;99.90
17988;DHT22;9119;50.932;5.342;2023-08-24T04:28:57;19.60;99.90
17988;DHT22;9119;50.932;5.342;2023-08-24T04:31:23;19.50;99.90
17988;DHT22;9119;50.932;5.342;2023-08-24T04:33:48;19.50;99.90
17988;DHT22;9119;50.932;5.342;2023-08-24T04:36:14;19.50;99.90
17988;DHT22;9119;50.932;5.342;2023-08-24T04:38:40;19.50;99.90
17988;DHT22;9119;50.932;5.342;2023-08-24T04:41:08;19.60;99.90
17988;DHT22;9119;50.932;5.342;2023-08-24T04:43:34;19.60;99.90
17988;DHT22;9119;50.932;5.342;2023-08-24T04:46:01;19.50;99.90
17988;DHT22;9119;50.932;5.342;2023-08-24T04:48:27;19.50;99.90
17988;DHT22;9119;50.932;5.342;2023-08-24T04:50:58;19.50;99.90
17988;DHT22;9119;50.932;5.342;2023-08-24T04:53:25;19.50;99.90
17988;DHT22;9119;50.932;5.342;2023-08-24T04:55:51;19.50;99.90
17988;DHT22;9119;50.932;5.342;2023-08-24T04:58:17;19.30;99.90
17988;DHT22;9119;50.932;5.342;2023-08-24T05:00:43;19.30;99.90
17988;DHT22;9119;50.932;5.342;2023-08-24T05:03:09;19.30;99.90
17988;DHT22;9119;50.932;5.342;2023-08-24T05:05:35;19.30;99.90
17988;DHT22;9119;50.932;5.342;2023-08-24T05:08:04;19.30;99.90
17988;DHT22;9119;50.932;5.342;2023-08-24T05:10:37;19.30;99.90
17988;DHT22;9119;50.932;5.342;2023-08-24T05:13:03;19.30;99.90
17988;DHT22;9119;50.932;5.342;2023-08-24T05:15:29;19.30;99.90
17988;DHT22;9119;50.932;5.342;2023-08-24T05:17:54;19.20;99.90
17988;DHT22;9119;50.932;5.342;2023-08-24T05:20:25;19.10;99.90
17988;DHT22;9119;50.932;5.342;2023-08-24T05:22:51;19.10;99.90
17988;DHT22;9119;50.932;5.342;2023-08-24T05:25:17;19.20;99.90
17988;DHT22;9119;50.932;5.342;2023-08-24T05:27:43;19.20;99.90
17988;DHT22;9119;50.932;5.342;2023-08-24T05:30:09;19.10;99.90
17988;DHT22;9119;50.932;5.342;2023-08-24T05:32:35;19.10;99.90
17988;DHT22;9119;50.932;5.342;2023-08-24T05:35:05;19.20;99.90
17988;DHT22;9119;50.932;5.342;2023-08-24T05:37:32;19.20;99.90
17988;DHT22;9119;50.932;5.342;2023-08-24T05:39:57;19.20;99.90
17988;DHT22;9119;50.932;5.342;2023-08-24T05:42:23;19.20;99.90
17988;DHT22;9119;50.932;5.342;2023-08-24T05:44:50;19.30;99.90
17988;DHT22;9119;50.932;5.342;2023-08-24T05:47:15;19.30;99.90
17988;DHT22;9119;50.932;5.342;2023-08-24T05:49:41;19.30;99.90
17988;DHT22;9119;50.932;5.342;2023-08-24T05:52:07;19.40;99.90
17988;DHT22;9119;50.932;5.342;2023-08-24T05:54:33;19.40;99.90
17988;DHT22;9119;50.932;5.342;2023-08-24T05:56:58;19.50;99.90
17988;DHT22;9119;50.932;5.342;2023-08-24T05:59:26;19.50;99.90
17988;DHT22;9119;50.932;5.342;2023-08-24T06:01:52;19.60;99.90
17988;DHT22;9119;50.932;5.342;2023-08-24T06:04:18;19.60;99.90
17988;DHT22;9119;50.932;5.342;2023-08-24T06:06:45;19.70;99.90
17988;DHT22;9119;50.932;5.342;2023-08-24T06:09:10;19.70;99.90
17988;DHT22;9119;50.932;5.342;2023-08-24T06:11:36;19.70;99.90
17988;DHT22;9119;50.932;5.342;2023-08-24T06:14:02;19.70;99.90
17988;DHT22;9119;50.932;5.342;2023-08-24T06:16:28;19.70;99.90
17988;DHT22;9119;50.932;5.342;2023-08-24T06:18:54;19.80;99.90
17988;DHT22;9119;50.932;5.342;2023-08-24T06:21:20;19.90;99.90
17988;DHT22;9119;50.932;5.342;2023-08-24T06:23:45;20.00;99.90
17988;DHT22;9119;50.932;5.342;2023-08-24T06:26:13;20.10;99.90
17988;DHT22;9119;50.932;5.342;2023-08-24T06:28:39;20.20;99.90
17988;DHT22;9119;50.932;5.342;2023-08-24T06:31:04;20.30;99.90
17988;DHT22;9119;50.932;5.342;2023-08-24T06:33:34;20.50;99.90
17988;DHT22;9119;50.932;5.342;2023-08-24T06:36:00;20.40;99.90
17988;DHT22;9119;50.932;5.342;2023-08-24T06:38:26;20.70;99.90
17988;DHT22;9119;50.932;5.342;2023-08-24T06:40:52;20.80;99.90
17988;DHT22;9119;50.932;5.342;2023-08-24T06:43:20;20.90;99.90
17988;DHT22;9119;50.932;5.342;2023-08-24T06:45:46;21.10;99.90
17988;DHT22;9119;50.932;5.342;2023-08-24T06:48:11;21.20;99.90
17988;DHT22;9119;50.932;5.342;2023-08-24T06:50:37;21.40;99.90
17988;DHT22;9119;50.932;5.342;2023-08-24T06:53:03;21.50;99.90
17988;DHT22;9119;50.932;5.342;2023-08-24T06:55:29;21.60;99.90
17988;DHT22;9119;50.932;5.342;2023-08-24T06:57:55;21.70;99.90
17988;DHT22;9119;50.932;5.342;2023-08-24T07:00:21;21.90;99.90
17988;DHT22;9119;50.932;5.342;2023-08-24T07:02:49;22.10;99.90
17988;DHT22;9119;50.932;5.342;2023-08-24T07:05:15;22.20;99.90
17988;DHT22;9119;50.932;5.342;2023-08-24T07:07:44;22.30;99.90
17988;DHT22;9119;50.932;5.342;2023-08-24T07:10:10;22.40;99.90
17988;DHT22;9119;50.932;5.342;2023-08-24T07:12:36;22.60;99.90
17988;DHT22;9119;50.932;5.342;2023-08-24T07:15:02;22.70;99.90
17988;DHT22;9119;50.932;5.342;2023-08-24T07:17:28;22.80;99.90
17988;DHT22;9119;50.932;5.342;2023-08-24T07:19:53;22.90;99.90
17988;DHT22;9119;50.932;5.342;2023-08-24T07:22:20;23.00;99.90
17988;DHT22;9119;50.932;5.342;2023-08-24T07:24:45;23.10;99.90
17988;DHT22;9119;50.932;5.342;2023-08-24T07:27:11;23.20;99.90
17988;DHT22;9119;50.932;5.342;2023-08-24T07:29:37;23.30;99.90
17988;DHT22;9119;50.932;5.342;2023-08-24T07:32:03;23.30;99.90
17988;DHT22;9119;50.932;5.342;2023-08-24T07:34:29;23.30;99.90
17988;DHT22;9119;50.932;5.342;2023-08-24T07:36:55;23.40;99.90
17988;DHT22;9119;50.932;5.342;2023-08-24T07:39:20;23.50;99.90
17988;DHT22;9119;50.932;5.342;2023-08-24T07:41:46;23.60;99.90
17988;DHT22;9119;50.932;5.342;2023-08-24T07:44:12;23.80;99.90
17988;DHT22;9119;50.932;5.342;2023-08-24T07:46:39;23.80;99.90
17988;DHT22;9119;50.932;5.342;2023-08-24T07:49:05;23.70;99.90
17988;DHT22;9119;50.932;5.342;2023-08-24T07:51:33;24.00;99.90
17988;DHT22;9119;50.932;5.342;2023-08-24T07:53:59;24.10;99.90
17988;DHT22;9119;50.932;5.342;2023-08-24T07:56:25;24.20;99.90
17988;DHT22;9119;50.932;5.342;2023-08-24T07:58:51;24.30;99.90
17988;DHT22;9119;50.932;5.342;2023-08-24T08:01:16;24.30;99.90
17988;DHT22;9119;50.932;5.342;2023-08-24T08:03:42;24.50;99.90
17988;DHT22;9119;50.932;5.342;2023-08-24T08:06:08;24.40;99.90
17988;DHT22;9119;50.932;5.342;2023-08-24T08:08:33;24.60;99.90
17988;DHT22;9119;50.932;5.342;2023-08-24T08:11:00;24.80;99.90
17988;DHT22;9119;50.932;5.342;2023-08-24T08:13:27;24.90;99.90
17988;DHT22;9119;50.932;5.342;2023-08-24T08:15:53;24.90;99.90
17988;DHT22;9119;50.932;5.342;2023-08-24T08:18:19;24.90;99.90
17988;DHT22;9119;50.932;5.342;2023-08-24T08:20:45;24.90;99.90
17988;DHT22;9119;50.932;5.342;2023-08-24T08:23:11;24.90;99.90
17988;DHT22;9119;50.932;5.342;2023-08-24T08:25:36;24.90;99.90
17988;DHT22;9119;50.932;5.342;2023-08-24T08:28:03;25.00;99.90
17988;DHT22;9119;50.932;5.342;2023-08-24T08:30:29;25.00;99.90
17988;DHT22;9119;50.932;5.342;2023-08-24T08:32:54;25.00;99.90
17988;DHT22;9119;50.932;5.342;2023-08-24T08:35:22;25.00;99.90
17988;DHT22;9119;50.932;5.342;2023-08-24T08:37:48;25.10;99.90
17988;DHT22;9119;50.932;5.342;2023-08-24T08:40:16;25.10;99.90
17988;DHT22;9119;50.932;5.342;2023-08-24T08:42:42;25.30;99.90
17988;DHT22;9119;50.932;5.342;2023-08-24T08:45:09;25.40;99.90
17988;DHT22;9119;50.932;5.342;2023-08-24T08:47:35;25.50;99.90
17988;DHT22;9119;50.932;5.342;2023-08-24T08:50:04;25.50;99.90
17988;DHT22;9119;50.932;5.342;2023-08-24T08:52:33;25.50;99.90
17988;DHT22;9119;50.932;5.342;2023-08-24T08:55:00;25.60;99.90
17988;DHT22;9119;50.932;5.342;2023-08-24T08:57:26;25.60;99.90
17988;DHT22;9119;50.932;5.342;2023-08-24T08:59:52;25.60;99.90
17988;DHT22;9119;50.932;5.342;2023-08-24T09:02:20;25.60;99.90
17988;DHT22;9119;50.932;5.342;2023-08-24T09:04:48;25.80;99.90
17988;DHT22;9119;50.932;5.342;2023-08-24T09:07:16;25.80;99.90
17988;DHT22;9119;50.932;5.342;2023-08-24T09:09:42;25.80;99.90
17988;DHT22;9119;50.932;5.342;2023-08-24T09:12:09;26.00;99.90
17988;DHT22;9119;50.932;5.342;2023-08-24T09:14:34;26.10;99.90
17988;DHT22;9119;50.932;5.342;2023-08-24T09:17:00;26.10;99.90
17988;DHT22;9119;50.932;5.342;2023-08-24T09:19:30;26.00;99.90
17988;DHT22;9119;50.932;5.342;2023-08-24T09:22:00;26.00;99.90
17988;DHT22;9119;50.932;5.342;2023-08-24T09:24:30;26.00;99.90
17988;DHT22;9119;50.932;5.342;2023-08-24T09:26:57;26.20;99.90
17988;DHT22;9119;50.932;5.342;2023-08-24T09:29:23;26.20;99.90
17988;DHT22;9119;50.932;5.342;2023-08-24T09:31:50;26.50;99.90
17988;DHT22;9119;50.932;5.342;2023-08-24T09:34:19;26.60;99.90
17988;DHT22;9119;50.932;5.342;2023-08-24T09:36:51;26.60;99.90
17988;DHT22;9119;50.932;5.342;2023-08-24T09:39:17;26.70;99.90
17988;DHT22;9119;50.932;5.342;2023-08-24T09:41:44;26.80;99.90
17988;DHT22;9119;50.932;5.342;2023-08-24T09:44:10;26.80;99.90
17988;DHT22;9119;50.932;5.342;2023-08-24T09:46:36;26.70;99.90
17988;DHT22;9119;50.932;5.342;2023-08-24T09:49:05;26.50;99.90
17988;DHT22;9119;50.932;5.342;2023-08-24T09:51:33;26.40;99.90
17988;DHT22;9119;50.932;5.342;2023-08-24T09:54:02;26.40;99.90
17988;DHT22;9119;50.932;5.342;2023-08-24T09:56:30;26.30;99.90
17988;DHT22;9119;50.932;5.342;2023-08-24T09:58:57;26.30;99.90
17988;DHT22;9119;50.932;5.342;2023-08-24T10:01:25;26.20;99.90
17988;DHT22;9119;50.932;5.342;2023-08-24T10:03:52;26.20;99.90
17988;DHT22;9119;50.932;5.342;2023-08-24T10:06:21;26.10;99.90
17988;DHT22;9119;50.932;5.342;2023-08-24T10:08:54;26.10;99.90
17988;DHT22;9119;50.932;5.342;2023-08-24T10:11:26;26.10;99.90
17988;DHT22;9119;50.932;5.342;2023-08-24T10:16:24;25.90;99.90
17988;DHT22;9119;50.932;5.342;2023-08-24T10:18:52;25.80;99.90
17988;DHT22;9119;50.932;5.342;2023-08-24T10:21:18;25.80;99.90
17988;DHT22;9119;50.932;5.342;2023-08-24T10:23:45;25.70;99.90
17988;DHT22;9119;50.932;5.342;2023-08-24T10:26:12;25.40;99.90
17988;DHT22;9119;50.932;5.342;2023-08-24T10:28:39;25.30;99.90
17988;DHT22;9119;50.932;5.342;2023-08-24T10:31:05;25.30;99.90
17988;DHT22;9119;50.932;5.342;2023-08-24T10:33:32;24.90;99.90
17988;DHT22;9119;50.932;5.342;2023-08-24T10:35:59;24.70;99.90
17988;DHT22;9119;50.932;5.342;2023-08-24T10:38:27;24.60;99.90
17988;DHT22;9119;50.932;5.342;2023-08-24T10:40:53;24.50;99.90
17988;DHT22;9119;50.932;5.342;2023-08-24T10:43:20;24.30;99.90
17988;DHT22;9119;50.932;5.342;2023-08-24T10:48:30;24.10;99.90
17988;DHT22;9119;50.932;5.342;2023-08-24T10:51:22;24.00;99.90
17988;DHT22;9119;50.932;5.342;2023-08-24T10:56:17;23.90;99.90
17988;DHT22;9119;50.932;5.342;2023-08-24T10:58:45;23.80;99.90
17988;DHT22;9119;50.932;5.342;2023-08-24T11:01:15;23.60;99.90
17988;DHT22;9119;50.932;5.342;2023-08-24T11:03:41;23.60;99.90
17988;DHT22;9119;50.932;5.342;2023-08-24T11:06:22;23.60;99.90
17988;DHT22;9119;50.932;5.342;2023-08-24T11:08:48;23.50;99.90
17988;DHT22;9119;50.932;5.342;2023-08-24T11:11:22;23.50;99.90
17988;DHT22;9119;50.932;5.342;2023-08-24T11:14:13;23.30;99.90
17988;DHT22;9119;50.932;5.342;2023-08-24T11:16:42;23.40;99.90
17988;DHT22;9119;50.932;5.342;2023-08-24T11:19:08;23.20;99.90
17988;DHT22;9119;50.932;5.342;2023-08-24T11:21:36;23.10;99.90
17988;DHT22;9119;50.932;5.342;2023-08-24T11:24:02;23.10;99.90
17988;DHT22;9119;50.932;5.342;2023-08-24T11:26:29;23.10;99.90
17988;DHT22;9119;50.932;5.342;2023-08-24T11:28:55;23.10;99.90
17988;DHT22;9119;50.932;5.342;2023-08-24T11:31:26;23.20;99.90
17988;DHT22;9119;50.932;5.342;2023-08-24T11:33:55;23.20;99.90
17988;DHT22;9119;50.932;5.342;2023-08-24T11:36:21;23.10;99.90
17988;DHT22;9119;50.932;5.342;2023-08-24T11:38:52;22.90;99.90
17988;DHT22;9119;50.932;5.342;2023-08-24T11:41:18;22.80;99.90
17988;DHT22;9119;50.932;5.342;2023-08-24T11:43:46;22.80;99.90
17988;DHT22;9119;50.932;5.342;2023-08-24T11:46:15;22.90;99.90
17988;DHT22;9119;50.932;5.342;2023-08-24T11:48:41;23.00;99.90
17988;DHT22;9119;50.932;5.342;2023-08-24T11:51:13;23.10;99.90
17988;DHT22;9119;50.932;5.342;2023-08-24T11:53:43;23.20;99.90
17988;DHT22;9119;50.932;5.342;2023-08-24T11:56:13;23.30;99.90
17988;DHT22;9119;50.932;5.342;2023-08-24T11:58:43;23.30;99.90
17988;DHT22;9119;50.932;5.342;2023-08-24T12:01:12;23.40;99.90
17988;DHT22;9119;50.932;5.342;2023-08-24T12:03:39;23.60;99.90
17988;DHT22;9119;50.932;5.342;2023-08-24T12:06:15;23.70;99.90
17988;DHT22;9119;50.932;5.342;2023-08-24T12:08:42;24.00;99.90
17988;DHT22;9119;50.932;5.342;2023-08-24T12:11:17;24.10;99.90
17988;DHT22;9119;50.932;5.342;2023-08-24T12:13:44;24.10;99.90
17988;DHT22;9119;50.932;5.342;2023-08-24T12:16:12;24.10;99.90
17988;DHT22;9119;50.932;5.342;2023-08-24T12:18:46;24.30;99.90
17988;DHT22;9119;50.932;5.342;2023-08-24T12:21:12;24.30;99.90
17988;DHT22;9119;50.932;5.342;2023-08-24T12:23:39;24.20;99.90
17988;DHT22;9119;50.932;5.342;2023-08-24T12:26:04;24.20;99.90
17988;DHT22;9119;50.932;5.342;2023-08-24T12:28:33;24.10;99.90
17988;DHT22;9119;50.932;5.342;2023-08-24T12:30:58;24.00;99.90
17988;DHT22;9119;50.932;5.342;2023-08-24T12:33:30;23.90;99.90
17988;DHT22;9119;50.932;5.342;2023-08-24T12:35:57;23.90;99.90
17988;DHT22;9119;50.932;5.342;2023-08-24T12:38:25;23.70;99.90
17988;DHT22;9119;50.932;5.342;2023-08-24T12:40:51;23.70;99.90
17988;DHT22;9119;50.932;5.342;2023-08-24T12:43:17;23.70;99.90
17988;DHT22;9119;50.932;5.342;2023-08-24T12:45:43;23.80;99.90
17988;DHT22;9119;50.932;5.342;2023-08-24T12:48:09;23.70;99.90
17988;DHT22;9119;50.932;5.342;2023-08-24T12:50:38;23.80;99.90
17988;DHT22;9119;50.932;5.342;2023-08-24T12:53:04;23.80;99.90
17988;DHT22;9119;50.932;5.342;2023-08-24T12:55:32;23.70;99.90
17988;DHT22;9119;50.932;5.342;2023-08-24T12:57:58;23.60;99.90
17988;DHT22;9119;50.932;5.342;2023-08-24T13:00:24;23.60;99.90
17988;DHT22;9119;50.932;5.342;2023-08-24T13:02:50;23.60;99.90
17988;DHT22;9119;50.932;5.342;2023-08-24T13:05:16;23.40;99.90
17988;DHT22;9119;50.932;5.342;2023-08-24T13:07:41;23.30;99.90
17988;DHT22;9119;50.932;5.342;2023-08-24T13:10:08;23.30;99.90
17988;DHT22;9119;50.932;5.342;2023-08-24T13:12:34;23.30;99.90
17988;DHT22;9119;50.932;5.342;2023-08-24T13:15:01;23.30;99.90
17988;DHT22;9119;50.932;5.342;2023-08-24T13:17:29;23.30;99.90
17988;DHT22;9119;50.932;5.342;2023-08-24T13:19:55;23.20;99.90
17988;DHT22;9119;50.932;5.342;2023-08-24T13:22:21;23.10;99.90
17988;DHT22;9119;50.932;5.342;2023-08-24T13:24:46;23.10;99.90
17988;DHT22;9119;50.932;5.342;2023-08-24T13:27:12;23.00;99.90
17988;DHT22;9119;50.932;5.342;2023-08-24T13:29:38;22.90;99.90
17988;DHT22;9119;50.932;5.342;2023-08-24T13:32:04;22.80;99.90
17988;DHT22;9119;50.932;5.342;2023-08-24T13:34:30;22.70;99.90
17988;DHT22;9119;50.932;5.342;2023-08-24T13:36:59;22.60;99.90
17988;DHT22;9119;50.932;5.342;2023-08-24T13:39:28;22.60;99.90
17988;DHT22;9119;50.932;5.342;2023-08-24T13:41:55;22.60;99.90
17988;DHT22;9119;50.932;5.342;2023-08-24T13:44:21;22.50;99.90
17988;DHT22;9119;50.932;5.342;2023-08-24T13:46:46;22.40;99.90
17988;DHT22;9119;50.932;5.342;2023-08-24T13:49:12;22.20;99.90
17988;DHT22;9119;50.932;5.342;2023-08-24T13:51:38;22.10;99.90
17988;DHT22;9119;50.932;5.342;2023-08-24T13:54:18;21.90;99.90
17988;DHT22;9119;50.932;5.342;2023-08-24T13:56:45;21.80;99.90
17988;DHT22;9119;50.932;5.342;2023-08-24T13:59:12;21.70;99.90
17988;DHT22;9119;50.932;5.342;2023-08-24T14:01:38;21.50;99.90
17988;DHT22;9119;50.932;5.342;2023-08-24T14:04:04;21.40;99.90
17988;DHT22;9119;50.932;5.342;2023-08-24T14:06:31;21.30;99.90
17988;DHT22;9119;50.932;5.342;2023-08-24T14:08:57;21.10;99.90
17988;DHT22;9119;50.932;5.342;2023-08-24T14:11:23;21.00;99.90
17988;DHT22;9119;50.932;5.342;2023-08-24T14:13:49;20.90;99.90
17988;DHT22;9119;50.932;5.342;2023-08-24T14:16:15;20.80;99.90
17988;DHT22;9119;50.932;5.342;2023-08-24T14:18:40;20.70;99.90
17988;DHT22;9119;50.932;5.342;2023-08-24T14:21:06;20.70;99.90
17988;DHT22;9119;50.932;5.342;2023-08-24T14:23:32;20.70;99.90
17988;DHT22;9119;50.932;5.342;2023-08-24T14:25:57;20.60;99.90
17988;DHT22;9119;50.932;5.342;2023-08-24T14:28:23;20.60;99.90
17988;DHT22;9119;50.932;5.342;2023-08-24T14:30:50;20.50;99.90
17988;DHT22;9119;50.932;5.342;2023-08-24T14:33:15;20.50;99.90
17988;DHT22;9119;50.932;5.342;2023-08-24T14:35:48;20.50;99.90
17988;DHT22;9119;50.932;5.342;2023-08-24T14:38:14;20.60;99.90
17988;DHT22;9119;50.932;5.342;2023-08-24T14:40:40;20.60;99.90
17988;DHT22;9119;50.932;5.342;2023-08-24T14:43:06;20.60;99.90
17988;DHT22;9119;50.932;5.342;2023-08-24T14:45:31;20.60;99.90
17988;DHT22;9119;50.932;5.342;2023-08-24T14:47:57;20.60;99.90
17988;DHT22;9119;50.932;5.342;2023-08-24T14:50:23;20.60;99.90
17988;DHT22;9119;50.932;5.342;2023-08-24T14:52:49;20.60;99.90
17988;DHT22;9119;50.932;5.342;2023-08-24T14:55:14;20.60;99.90
17988;DHT22;9119;50.932;5.342;2023-08-24T14:57:40;20.70;99.90
17988;DHT22;9119;50.932;5.342;2023-08-24T15:00:06;20.80;99.90
17988;DHT22;9119;50.932;5.342;2023-08-24T15:02:35;20.80;99.90
17988;DHT22;9119;50.932;5.342;2023-08-24T15:05:02;20.60;99.90
17988;DHT22;9119;50.932;5.342;2023-08-24T15:07:28;20.90;99.90
17988;DHT22;9119;50.932;5.342;2023-08-24T15:09:54;21.00;99.90
17988;DHT22;9119;50.932;5.342;2023-08-24T15:12:20;21.00;99.90
17988;DHT22;9119;50.932;5.342;2023-08-24T15:15:00;21.10;99.90
17988;DHT22;9119;50.932;5.342;2023-08-24T15:17:29;21.10;99.90
17988;DHT22;9119;50.932;5.342;2023-08-24T15:19:55;21.30;99.90
17988;DHT22;9119;50.932;5.342;2023-08-24T15:22:24;21.30;99.90
17988;DHT22;9119;50.932;5.342;2023-08-24T15:24:55;21.40;99.90
17988;DHT22;9119;50.932;5.342;2023-08-24T15:27:21;21.40;99.90
17988;DHT22;9119;50.932;5.342;2023-08-24T15:29:47;21.50;99.90
17988;DHT22;9119;50.932;5.342;2023-08-24T15:32:13;21.60;99.90
17988;DHT22;9119;50.932;5.342;2023-08-24T15:34:39;21.70;99.90
17988;DHT22;9119;50.932;5.342;2023-08-24T15:37:05;21.80;99.90
17988;DHT22;9119;50.932;5.342;2023-08-24T15:39:37;21.80;99.90
17988;DHT22;9119;50.932;5.342;2023-08-24T15:42:06;21.90;99.90
17988;DHT22;9119;50.932;5.342;2023-08-24T15:44:32;22.00;99.90
17988;DHT22;9119;50.932;5.342;2023-08-24T15:46:58;22.00;99.90
17988;DHT22;9119;50.932;5.342;2023-08-24T15:49:24;22.10;99.90
17988;DHT22;9119;50.932;5.342;2023-08-24T15:51:51;22.20;99.90
17988;DHT22;9119;50.932;5.342;2023-08-24T15:54:17;22.30;99.90
17988;DHT22;9119;50.932;5.342;2023-08-24T15:56:43;22.40;99.90